Airfield :
LOGIN :

Register | Disclaimer

   EN    FR    IT 

 










Legend :    VFR   Marginal VFR   IFR   Intensive IFR   Very Intensive IFR
Visi :
Ceiling :
>= 8 km
>= 3000ft
5 to 8 km
1000 to 3000 ft
1500m to 5 km
500 to 1000 ft
800 to 1500m
200 to 500 ft
< 800m
< 200 ft
Symbols :   Thunderstorms  Fog  Heavy snow  Heavy precipitations  Wind > 20 kt
SIGMETs :     Misc.  Thunderstorms  Icing  Turbulence  Mountain Waves  Volcanic Ashes






- Airport Elevation : 2054 ft
- IATA code : RRS


ENRO - Røros

CURRENT METAR :
  • 190420Z AUTO 14001KT 9999NDV -SHSN FEW005/// SCT019/// BKN032/// M03/M03 Q0990

EXPIRED METARs :
  • 190350Z AUTO VRB02KT 9999NDV -SHSN FEW007/// BKN034/// OVC041/// M03/M03 Q0990
  • 190320Z AUTO 23003KT 170V260 9999NDV FEW014/// SCT035/// BKN048/// M02/M03 Q0990
  • 190250Z AUTO 22006KT 200V260 9999NDV BKN040/// OVC070/// M02/M03 Q0989
  • 190220Z AUTO VRB02KT 9999NDV OVC046/// M03/M03 Q0989
  • 190150Z AUTO 22004KT 9999NDV -SHSN FEW025/// OVC044/// M03/M03 Q0989

TAF TAF ENRO
Valid from the 19 at 03:00 until the 19 at 12:00 UTC


190200Z 1903/1912 26008KT 9999 SCT010 BKN030
TEMPO 1903/1912 2500 -SHSN VV009



MET'MAP, your aeronautical weather chart ! - Copyright ORBIFLY December 2007 - Disclaimer

ORBIFLY MET'MAP TEAM :

Programming & Development : Alexandra Zaïnal
Concept & original design : Baudouin d'Aumeries
Assistance for programming : Marc-Olivier Méhu
Technical & hardware support : Manuel Goepfert

Contact : metmap@orbifly.com




SOURCES & CREDITS :

   NOAA